Time;durP1;ratioP1;P1;durP2;ratioP2;P2;SDS_P1;SDS_P2;PMS_P1;PMS_P2;Temp;Humidity;BMP_temperature;BMP_pressure;BME280_temperature;BME280_humidity;BME280_pressure;Samples;Min_cycle;Max_cycle;Signal;HPM_P1;HPM_P2
2022/05/09 00:00:32;;;;;;;;;;;9.90;99.90;10.90;97482.00;;;;5089737;28;19920;-76
2022/05/09 00:03:20;;;;;;;;;;;9.90;99.90;10.70;97491.00;;;;5089686;28;19927;-76
2022/05/09 00:06:10;;;;;;;;;;;9.90;99.90;10.80;97494.00;;;;5083485;28;19927;-77
2022/05/09 00:08:59;;;;;;;;;;;9.90;99.90;10.60;97489.00;;;;5087759;28;19938;-76
2022/05/09 00:11:47;;;;;;;;;;;9.90;99.90;10.30;97489.00;;;;5090587;28;19920;-76
2022/05/09 00:14:36;;;;;;;;;;;9.70;99.90;10.00;97483.00;;;;5090306;28;19920;-76
2022/05/09 00:17:24;;;;;;;;;;;9.60;99.90;10.30;97483.00;;;;5094909;28;19927;-77
2022/05/09 00:20:15;;;;;;;6.73;6.07;;;9.60;99.90;10.20;97485.00;;;;5088816;28;20203;-76
2022/05/09 00:23:05;;;;;;;6.93;5.83;;;9.50;99.90;10.20;97487.00;;;;5089165;28;20230;-76
2022/05/09 00:25:54;;;;;;;7.53;6.63;;;9.50;99.90;10.20;97479.00;;;;5089092;28;20218;-76
2022/05/09 00:28:43;;;;;;;7.43;6.63;;;9.50;99.90;10.20;97478.00;;;;5087910;28;20686;-76
2022/05/09 00:31:32;;;;;;;8.60;6.57;;;9.50;99.90;10.20;97476.00;;;;5080382;28;20226;-76
2022/05/09 00:34:22;;;;;;;6.50;5.97;;;9.50;99.90;10.40;97480.00;;;;5075222;28;20200;-76
2022/05/09 00:37:11;;;;;;;11.20;6.80;;;9.50;99.90;10.40;97479.00;;;;5087474;28;20226;-76
2022/05/09 00:40:01;;;;;;;8.07;7.27;;;9.50;99.90;10.40;97482.00;;;;5088248;28;20689;-76
2022/05/09 00:42:54;;;;;;;8.53;5.83;;;9.50;99.90;10.40;97488.00;;;;5084433;28;20224;-76
2022/05/09 00:45:43;;;;;;;7.87;7.07;;;9.50;99.90;10.20;97478.00;;;;5086108;28;20629;-77
2022/05/09 00:48:31;;;;;;;8.03;7.23;;;9.50;99.90;10.00;97476.00;;;;5098316;28;20190;-76
2022/05/09 00:51:24;;;;;;;7.50;6.60;;;9.40;99.90;10.20;97492.00;;;;5087341;28;20190;-76
2022/05/09 00:54:14;;;;;;;8.47;6.20;;;9.40;99.90;10.20;97488.00;;;;5084078;28;20203;-76
2022/05/09 00:57:11;;;;;;;7.37;6.67;;;9.40;99.90;10.10;97485.00;;;;5086016;28;20230;-76
2022/05/09 01:00:07;;;;;;;7.07;6.03;;;9.30;99.90;10.20;97477.00;;;;5081850;28;20214;-76
2022/05/09 01:03:02;;;;;;;6.80;6.10;;;9.30;99.90;10.10;97482.00;;;;5079299;28;20230;-76
2022/05/09 01:05:52;;;;;;;6.70;6.10;;;9.30;99.90;9.80;97492.00;;;;5089470;28;20576;-76
2022/05/09 01:08:41;;;;;;;7.30;6.60;;;9.20;99.90;9.80;97482.00;;;;5092846;28;20204;-76
2022/05/09 01:11:30;;;;;;;7.47;5.77;;;9.20;99.90;9.90;97488.00;;;;5088793;28;20210;-76
2022/05/09 01:14:24;;;;;;;8.07;7.27;;;9.20;99.90;9.80;97488.00;;;;5087993;28;20195;-76
2022/05/09 01:17:17;;;;;;;8.80;7.10;;;9.10;99.90;10.00;97485.00;;;;5085364;28;20215;-76
2022/05/09 01:20:10;;;;;;;10.63;6.20;;;9.10;99.90;10.00;97488.00;;;;5083669;28;20202;-77
2022/05/09 01:23:02;;;;;;;6.90;6.30;;;9.20;99.90;9.90;97489.00;;;;5088720;28;20223;-78
2022/05/09 01:25:52;;;;;;;6.43;5.83;;;9.20;99.90;9.70;97488.00;;;;5088658;28;20203;-77
2022/05/09 01:28:42;;;;;;;7.90;6.60;;;9.10;99.90;9.60;97485.00;;;;5080659;28;20204;-77
2022/05/09 01:31:31;;;;;;;6.70;5.77;;;9.00;99.90;9.90;97491.00;;;;5078995;28;20954;-77
2022/05/09 01:34:20;;;;;;;6.83;6.13;;;9.00;99.90;9.90;97489.00;;;;5085218;28;20633;-78
2022/05/09 01:37:11;;;;;;;8.73;6.03;;;9.00;99.90;9.70;97490.00;;;;5085431;28;20231;-76
2022/05/09 01:40:01;;;;;;;6.70;6.03;;;9.00;99.90;9.70;97486.00;;;;5082074;28;20212;-76
2022/05/09 01:42:50;;;;;;;9.77;5.40;;;9.00;99.90;9.40;97492.00;;;;5086706;28;20223;-76
2022/05/09 01:45:39;;;;;;;9.63;6.27;;;8.90;99.90;9.60;97487.00;;;;5087454;28;20208;-76
2022/05/09 01:51:36;;;;;;;7.60;6.80;;;8.90;99.90;9.50;97495.00;;;;5087705;28;20207;-76
2022/05/09 01:54:25;;;;;;;6.63;5.60;;;8.80;99.90;9.70;97478.00;;;;5086495;28;20214;-76
2022/05/09 01:57:16;;;;;;;15.10;7.03;;;8.80;99.90;9.70;97479.00;;;;5086067;28;20544;-76
2022/05/09 02:00:07;;;;;;;9.40;6.20;;;8.90;99.90;9.90;97487.00;;;;5091678;28;20199;-77
2022/05/09 02:02:56;;;;;;;7.00;6.30;;;8.90;99.90;9.90;97495.00;;;;5082016;28;20230;-76
2022/05/09 02:05:44;;;;;;;5.63;5.13;;;8.90;99.90;9.90;97490.00;;;;5091869;28;20218;-76
2022/05/09 02:08:33;;;;;;;13.37;7.37;;;9.00;99.90;10.10;97492.00;;;;5090098;28;20199;-76
2022/05/09 02:11:22;;;;;;;6.10;5.50;;;9.00;99.90;10.10;97491.00;;;;5091774;28;20662;-76
2022/05/09 02:14:12;;;;;;;7.83;5.33;;;9.10;99.90;10.20;97492.00;;;;5090807;28;20207;-76
2022/05/09 02:17:01;;;;;;;6.17;5.67;;;9.10;99.90;10.20;97491.00;;;;5086086;28;20203;-76
2022/05/09 02:19:50;;;;;;;8.03;6.10;;;9.10;99.90;10.10;97489.00;;;;5091607;28;20211;-76
2022/05/09 02:22:39;;;;;;;5.77;5.23;;;9.20;99.90;10.10;97495.00;;;;5085296;28;20219;-76
2022/05/09 02:25:29;;;;;;;6.67;6.07;;;9.20;99.90;10.00;97490.00;;;;5091917;28;20199;-76
2022/05/09 02:28:18;;;;;;;5.70;5.20;;;9.10;99.90;9.80;97487.00;;;;5090654;28;20207;-76
2022/05/09 02:31:08;;;;;;;7.10;5.43;;;9.10;99.90;9.80;97493.00;;;;5090103;28;20207;-76
2022/05/09 02:33:57;;;;;;;8.13;5.20;;;9.10;99.90;9.70;97483.00;;;;5088327;28;20658;-76
2022/05/09 02:36:46;;;;;;;7.97;7.18;;;9.00;99.90;9.60;97479.00;;;;5085612;28;20405;-76
2022/05/09 02:39:35;;;;;;;6.47;5.73;;;9.00;99.90;9.70;97486.00;;;;5090702;28;20211;-76
2022/05/09 02:42:23;;;;;;;6.43;5.83;;;9.00;99.90;9.70;97484.00;;;;5091105;28;20227;-76
2022/05/09 02:45:13;;;;;;;6.87;5.97;;;9.00;99.90;9.60;97492.00;;;;5086786;28;20207;-76
2022/05/09 02:48:05;;;;;;;8.23;6.50;;;8.90;99.90;9.60;97487.00;;;;5090896;28;20203;-76
2022/05/09 02:50:53;;;;;;;7.77;5.53;;;8.90;99.90;9.80;97489.00;;;;5089151;28;20199;-76
2022/05/09 02:53:42;;;;;;;6.33;5.73;;;8.90;99.90;9.90;97496.00;;;;5090005;28;20567;-76
2022/05/09 02:56:31;;;;;;;6.93;6.23;;;8.90;99.90;9.70;97486.00;;;;5086170;28;20571;-76
2022/05/09 02:59:20;;;;;;;6.30;5.70;;;8.90;99.90;9.80;97495.00;;;;5086545;28;20620;-76
2022/05/09 03:02:09;;;;;;;6.80;6.10;;;8.90;99.90;9.90;97496.00;;;;5089893;28;20614;-76
2022/05/09 03:04:58;;;;;;;8.47;6.20;;;8.90;99.90;9.90;97500.00;;;;5090405;28;20216;-77
2022/05/09 03:07:47;;;;;;;6.80;6.10;;;8.90;99.90;9.80;97496.00;;;;5082475;28;20674;-76
2022/05/09 03:10:36;;;;;;;6.50;5.77;;;8.90;99.90;9.80;97495.00;;;;5080746;28;20214;-76
2022/05/09 03:13:25;;;;;;;6.03;5.43;;;8.90;99.90;9.80;97502.00;;;;5091008;22;20265;-85
2022/05/09 03:16:14;;;;;;;6.10;5.50;;;8.90;99.90;9.40;97505.00;;;;5069974;28;20663;-84
2022/05/09 03:19:03;;;;;;;6.70;6.07;;;8.80;99.90;9.30;97512.00;;;;5068587;28;20714;-83
2022/05/09 03:21:53;;;;;;;7.00;5.93;;;8.80;99.90;9.30;97510.00;;;;5067219;28;20204;-86
2022/05/09 03:24:43;;;;;;;7.00;6.20;;;8.70;99.90;9.50;97503.00;;;;5071707;28;20220;-85
2022/05/09 03:27:31;;;;;;;6.70;5.90;;;8.70;99.90;9.50;97512.00;;;;5071291;28;20310;-85
2022/05/09 03:30:21;;;;;;;8.57;6.07;;;8.70;99.90;9.50;97514.00;;;;5076357;28;20212;-86
2022/05/09 03:33:11;;;;;;;12.20;6.60;;;8.70;99.90;9.30;97509.00;;;;5071448;28;20656;-85
2022/05/09 03:36:01;;;;;;;6.70;6.00;;;8.60;99.90;9.10;97501.00;;;;5070756;28;20223;-85
2022/05/09 03:38:52;;;;;;;7.07;6.27;;;8.60;99.90;8.70;97510.00;;;;5070918;28;20231;-83
2022/05/09 03:41:41;;;;;;;5.90;5.40;;;8.40;99.90;8.90;97520.00;;;;5071935;28;20204;-85
2022/05/09 03:44:29;;;;;;;5.97;5.37;;;8.40;99.90;8.90;97512.00;;;;5070624;28;20257;-85
2022/05/09 03:47:18;;;;;;;7.17;6.47;;;8.30;99.90;8.60;97516.00;;;;5061259;28;20580;-83
2022/05/09 03:50:09;;;;;;;10.37;6.17;;;8.30;99.90;8.70;97515.00;;;;5068458;28;20215;-85
2022/05/09 03:52:58;;;;;;;7.10;6.40;;;8.20;99.90;8.90;97511.00;;;;5065051;28;20199;-83
2022/05/09 03:55:48;;;;;;;8.33;7.50;;;8.30;99.90;9.00;97517.00;;;;5071519;28;20607;-85
2022/05/09 03:58:38;;;;;;;9.50;6.67;;;8.30;99.90;9.00;97518.00;;;;5070038;28;20241;-84
2022/05/09 04:01:26;;;;;;;10.77;7.83;;;8.30;99.90;9.20;97517.00;;;;5070712;28;20671;-83
2022/05/09 04:04:15;;;;;;;10.73;7.20;;;8.30;99.90;9.10;97518.00;;;;5064843;28;20583;-85
2022/05/09 04:07:05;;;;;;;9.33;6.47;;;8.40;99.90;9.00;97524.00;;;;5065655;28;20200;-83
2022/05/09 04:09:54;;;;;;;9.70;7.70;;;8.40;99.90;9.30;97524.00;;;;5066367;28;20705;-84
2022/05/09 04:12:44;;;;;;;7.60;6.90;;;8.40;99.90;9.30;97517.00;;;;5065850;28;20589;-85
2022/05/09 04:18:42;;;;;;;7.97;6.93;;;8.40;99.90;8.90;97521.00;;;;5047993;28;20637;-83
2022/05/09 04:21:34;;;;;;;8.93;6.53;;;8.30;99.90;9.10;97523.00;;;;5054245;28;20205;-85
2022/05/09 04:24:23;;;;;;;9.43;6.50;;;8.30;99.90;9.00;97524.00;;;;5052121;28;20691;-85
2022/05/09 04:27:12;;;;;;;8.03;7.07;;;8.30;99.90;8.70;97526.00;;;;5045775;28;20201;-85
2022/05/09 04:30:02;;;;;;;8.50;7.60;;;8.30;99.90;8.80;97526.00;;;;5051803;28;20237;-83
2022/05/09 04:32:51;;;;;;;7.97;7.17;;;8.30;99.90;9.10;97536.00;;;;5039780;28;20234;-84
2022/05/09 04:35:42;;;;;;;8.30;7.20;;;8.30;99.90;9.00;97534.00;;;;5048429;28;20204;-84
2022/05/09 04:38:31;;;;;;;8.03;7.30;;;8.30;99.90;8.60;97533.00;;;;5050334;28;20232;-84
2022/05/09 04:41:22;;;;;;;8.00;7.20;;;8.30;99.90;8.70;97534.00;;;;5048934;28;20572;-85
2022/05/09 04:44:10;;;;;;;8.47;7.17;;;8.30;99.90;9.00;97540.00;;;;5047038;28;20224;-84
2022/05/09 04:47:01;;;;;;;20.80;11.67;;;8.30;99.90;9.30;97537.00;;;;5043571;28;20674;-84
2022/05/09 04:49:49;;;;;;;15.97;11.30;;;8.40;99.90;9.30;97535.00;;;;5049371;28;20701;-84
2022/05/09 04:52:41;;;;;;;18.57;12.97;;;8.50;99.90;9.40;97538.00;;;;5043367;28;20208;-84
2022/05/09 04:55:30;;;;;;;22.50;14.43;;;8.60;99.90;9.60;97543.00;;;;5048673;28;20220;-84
2022/05/09 04:58:22;;;;;;;15.33;13.23;;;8.70;99.90;9.90;97548.00;;;;5039889;28;20204;-84
2022/05/09 05:01:11;;;;;;;11.63;10.47;;;8.90;99.90;9.80;97544.00;;;;5047802;28;20205;-85
2022/05/09 05:04:04;;;;;;;10.50;9.40;;;9.00;99.90;10.10;97553.00;;;;5045103;28;20225;-83
2022/05/09 05:06:53;;;;;;;8.63;7.83;;;9.10;99.90;10.00;97551.00;;;;5044215;28;20200;-84
2022/05/09 05:09:42;;;;;;;9.13;8.20;;;9.20;99.90;10.50;97554.00;;;;5047665;28;20511;-84
2022/05/09 05:12:31;;;;;;;10.23;8.63;;;9.40;99.90;10.60;97544.00;;;;5050796;28;20209;-85
2022/05/09 05:15:20;;;;;;;11.07;8.20;;;9.60;99.90;10.70;97551.00;;;;5079830;28;20250;-83
2022/05/09 05:18:09;;;;;;;10.70;8.93;;;9.60;99.90;11.10;97554.00;;;;5076060;28;20215;-84
2022/05/09 05:21:00;;;;;;;12.50;8.77;;;9.80;99.90;11.10;97553.00;;;;5078469;28;20231;-83
2022/05/09 05:23:49;;;;;;;10.50;9.40;;;9.90;99.90;11.20;97566.00;;;;5067589;28;20697;-84
2022/05/09 05:26:38;;;;;;;12.47;8.73;;;10.00;99.90;11.20;97557.00;;;;5074593;28;20211;-83
2022/05/09 05:29:27;;;;;;;9.23;7.67;;;10.20;99.90;11.40;97557.00;;;;5066940;28;20588;-85
2022/05/09 05:32:16;;;;;;;9.73;8.77;;;10.20;99.90;11.70;97558.00;;;;5072351;28;20212;-85
2022/05/09 05:35:07;;;;;;;12.13;8.53;;;10.40;99.90;11.70;97554.00;;;;5067180;28;20525;-84
2022/05/09 05:37:58;;;;;;;9.80;8.80;;;10.60;99.90;12.00;97561.00;;;;5063650;28;20230;-84
2022/05/09 05:40:46;;;;;;;9.20;7.93;;;10.70;99.90;12.10;97560.00;;;;5064405;28;20692;-84
2022/05/09 05:43:35;;;;;;;7.87;6.97;;;10.90;99.90;12.10;97554.00;;;;5066733;28;20695;-84
2022/05/09 05:46:24;;;;;;;10.17;8.33;;;11.00;99.90;12.30;97564.00;;;;5059376;28;20583;-86
2022/05/09 05:49:13;;;;;;;8.13;7.07;;;11.10;99.90;12.40;97567.00;;;;5069439;28;20195;-84
2022/05/09 05:52:03;;;;;;;9.60;8.00;;;11.20;99.90;12.50;97567.00;;;;5072086;28;20515;-84
2022/05/09 05:54:53;;;;;;;13.23;8.47;;;11.40;99.90;12.70;97564.00;;;;5070482;28;20227;-85
2022/05/09 05:57:44;;;;;;;9.67;8.53;;;11.50;99.90;12.80;97565.00;;;;5070805;28;20211;-85
2022/05/09 06:00:33;;;;;;;9.23;8.27;;;11.60;99.90;13.20;97572.00;;;;5072459;28;20224;-86
2022/05/09 06:03:21;;;;;;;9.53;7.57;;;11.80;99.90;13.20;97573.00;;;;5072628;28;20204;-84
2022/05/09 06:06:10;;;;;;;9.07;8.03;;;12.00;99.90;13.60;97576.00;;;;5072052;28;20204;-84
2022/05/09 06:08:59;;;;;;;7.10;6.40;;;12.10;99.90;13.80;97582.00;;;;5072994;28;20199;-85
2022/05/09 06:11:49;;;;;;;9.50;8.33;;;12.30;99.90;13.80;97582.00;;;;5073053;28;20212;-84
2022/05/09 06:14:39;;;;;;;11.93;7.10;;;12.40;99.90;14.10;97580.00;;;;5073653;28;20227;-84
2022/05/09 06:17:27;;;;;;;8.47;7.33;;;12.60;99.90;14.60;97586.00;;;;5071542;28;20402;-83
2022/05/09 06:20:16;;;;;;;7.53;6.53;;;12.80;99.90;14.60;97587.00;;;;5054122;28;20231;-84
2022/05/09 06:23:08;;;;;;;13.13;7.97;;;13.00;99.90;14.50;97590.00;;;;5066580;28;20203;-84
2022/05/09 06:25:57;;;;;;;8.87;7.97;;;13.10;99.90;14.30;97592.00;;;;5073470;28;20587;-86
2022/05/09 06:28:47;;;;;;;8.03;7.23;;;13.20;99.90;14.40;97587.00;;;;5061038;28;20196;-84
2022/05/09 06:31:37;;;;;;;7.73;6.87;;;13.30;99.90;14.60;97583.00;;;;5062069;28;20565;-83
2022/05/09 06:34:26;;;;;;;7.17;6.13;;;13.40;99.90;15.00;97590.00;;;;5070668;28;20307;-84
2022/05/09 06:37:15;;;;;;;7.93;6.97;;;13.60;99.90;15.00;97592.00;;;;5070222;28;20204;-85
2022/05/09 06:40:06;;;;;;;9.23;8.23;;;13.70;99.90;15.30;97592.00;;;;5064270;28;20247;-84
2022/05/09 06:42:56;;;;;;;9.60;6.60;;;13.80;99.90;15.70;97596.00;;;;5061720;28;20204;-84
2022/05/09 06:45:47;;;;;;;10.80;8.30;;;14.00;99.90;15.50;97603.00;;;;5065732;28;20226;-84
2022/05/09 06:48:35;;;;;;;11.17;7.90;;;14.10;99.90;15.10;97599.00;;;;5065724;28;20199;-84
2022/05/09 06:51:24;;;;;;;8.10;7.30;;;14.20;99.90;15.60;97600.00;;;;5055883;28;20578;-83
2022/05/09 06:54:14;;;;;;;8.50;7.30;;;14.20;99.90;15.50;97599.00;;;;5064628;28;20224;-84
2022/05/09 06:57:04;;;;;;;8.67;7.70;;;14.30;99.90;15.50;97606.00;;;;5066863;28;20579;-84
2022/05/09 06:59:53;;;;;;;8.93;7.10;;;14.30;99.90;15.70;97595.00;;;;5072988;28;20224;-85
2022/05/09 07:02:43;;;;;;;8.20;7.27;;;14.40;99.90;15.90;97604.00;;;;5059913;28;20212;-83
2022/05/09 07:05:33;;;;;;;10.20;7.97;;;14.50;99.90;16.10;97594.00;;;;5071359;28;20219;-85
2022/05/09 07:08:23;;;;;;;11.43;7.30;;;14.60;99.90;16.60;97610.00;;;;5072426;28;20200;-84
2022/05/09 07:11:12;;;;;;;9.50;7.43;;;14.90;99.90;16.40;97594.00;;;;5060772;28;20238;-85
2022/05/09 07:14:10;;;;;;;8.20;6.87;;;15.00;99.90;16.60;97607.00;;;;5070727;28;20234;-84
2022/05/09 07:16:59;;;;;;;7.60;6.77;;;15.20;99.90;16.70;97597.00;;;;5071804;28;20575;-84
2022/05/09 07:19:49;;;;;;;10.97;7.30;;;15.40;99.90;16.50;97596.00;;;;5056849;28;20213;-84
2022/05/09 07:22:38;;;;;;;7.17;6.47;;;15.50;99.90;16.80;97591.00;;;;5061903;28;20211;-84
2022/05/09 07:25:27;;;;;;;8.63;7.13;;;15.50;99.90;17.30;97586.00;;;;5069613;28;20230;-84
2022/05/09 07:28:19;;;;;;;11.00;6.70;;;15.70;99.90;17.40;97593.00;;;;5070893;28;20208;-84
2022/05/09 07:31:08;;;;;;;10.63;7.43;;;16.00;99.90;17.80;97603.00;;;;5071631;28;20210;-83
2022/05/09 07:33:57;;;;;;;8.47;7.33;;;16.30;99.90;18.20;97589.00;;;;5060294;28;20228;-83
2022/05/09 07:36:47;;;;;;;9.20;7.20;;;16.50;99.90;18.40;97591.00;;;;5070189;28;20583;-83
2022/05/09 07:39:36;;;;;;;8.03;6.90;;;16.70;99.90;18.80;97611.00;;;;5069948;28;20216;-84
2022/05/09 07:42:25;;;;;;;8.97;7.50;;;17.00;99.90;19.10;97602.00;;;;5070709;28;20203;-84
2022/05/09 07:45:19;;;;;;;10.23;7.53;;;17.20;99.90;19.10;97610.00;;;;5070658;28;20247;-84
2022/05/09 07:48:09;;;;;;;9.37;7.33;;;17.40;99.90;19.30;97608.00;;;;5069798;28;20203;-84
2022/05/09 07:51:00;;;;;;;11.07;7.77;;;17.50;99.90;19.50;97601.00;;;;5067500;28;20227;-85
2022/05/09 07:53:51;;;;;;;11.93;9.50;;;17.70;99.90;19.60;97606.00;;;;5062461;28;20231;-84
2022/05/09 07:56:40;;;;;;;9.97;7.37;;;17.80;99.90;19.80;97608.00;;;;5075584;28;20619;-84
2022/05/09 07:59:29;;;;;;;10.67;7.70;;;18.00;99.90;19.90;97610.00;;;;5070147;28;20212;-85
2022/05/09 08:02:18;;;;;;;8.47;7.00;;;17.70;99.90;20.10;97615.00;;;;5070691;28;20215;-84
2022/05/09 08:05:09;;;;;;;7.90;7.10;;;18.30;99.90;20.20;97608.00;;;;5070995;28;20243;-84
2022/05/09 08:07:58;;;;;;;11.63;7.20;;;18.40;99.90;20.40;97622.00;;;;5070469;28;20196;-85
2022/05/09 08:10:49;;;;;;;8.17;6.87;;;18.60;99.90;20.20;97618.00;;;;5070288;28;20207;-85
2022/05/09 08:13:39;;;;;;;9.03;6.37;;;18.70;99.90;20.40;97611.00;;;;5058941;28;20704;-85
2022/05/09 08:16:30;;;;;;;14.67;8.07;;;18.80;99.90;20.30;97610.00;;;;5069593;28;20206;-85
2022/05/09 08:19:19;;;;;;;9.57;7.50;;;18.90;99.90;20.80;97612.00;;;;5069835;28;20228;-84
2022/05/09 08:22:08;;;;;;;9.27;7.00;;;19.00;99.90;20.80;97612.00;;;;5059455;28;20231;-84
2022/05/09 08:25:00;;;;;;;6.60;5.90;;;19.10;99.90;21.10;97611.00;;;;5065573;28;20223;-85
2022/05/09 08:27:54;;;;;;;8.43;7.22;;;19.20;99.90;21.10;97610.00;;;;5068726;28;20384;-84
2022/05/09 08:30:44;;;;;;;12.27;6.57;;;19.40;99.90;21.00;97610.00;;;;5067793;28;20373;-85
2022/05/09 08:33:33;;;;;;;7.77;6.97;;;19.50;99.90;21.50;97618.00;;;;5066865;28;20224;-84
2022/05/09 08:39:28;;;;;;;9.23;7.63;;;19.80;99.90;21.90;97609.00;;;;5066344;28;20689;-82
2022/05/09 08:42:24;;;;;;;7.83;6.37;;;20.00;99.90;21.70;97606.00;;;;5060979;28;20200;-86
2022/05/09 08:45:26;;;;;;;8.53;6.53;;;20.20;99.90;21.60;97597.00;;;;5069463;28;20609;-84
2022/05/09 08:48:38;;;;;;;7.53;6.73;;;20.20;99.90;22.30;97613.00;;;;5066193;28;20218;-85
2022/05/09 08:51:42;;;;;;;6.67;6.07;;;20.40;99.90;22.00;97610.00;;;;5062533;28;20224;-83
2022/05/09 08:54:32;;;;;;;6.50;5.80;;;20.50;99.90;22.50;97612.00;;;;5061045;28;20231;-85
2022/05/09 08:57:24;;;;;;;7.53;6.40;;;20.70;99.90;22.80;97601.00;;;;5069116;28;20200;-85
2022/05/09 09:00:29;;;;;;;8.13;6.10;;;20.80;99.90;23.00;97606.00;;;;5068983;28;20208;-85
2022/05/09 09:03:30;;;;;;;7.33;6.63;;;21.00;99.90;23.30;97606.00;;;;5064208;28;20215;-84
2022/05/09 09:06:36;;;;;;;;;;;21.20;99.90;23.60;97611.00;;;;5066324;28;20162;-84
2022/05/09 09:09:37;;;;;;;;;;;21.50;99.90;23.00;97606.00;;;;5070008;28;19928;-86
2022/05/09 09:12:33;;;;;;;;;;;21.60;99.90;23.60;97606.00;;;;5066131;28;19927;-84
2022/05/09 09:15:29;;;;;;;;;;;21.70;99.90;23.60;97610.00;;;;5066620;28;19920;-85
2022/05/09 09:18:36;;;;;;;;;;;21.90;99.90;24.20;97611.00;;;;5059941;28;19974;-85
2022/05/09 09:21:33;;;;;;;;;;;22.10;99.90;24.30;97613.00;;;;5061225;28;19959;-86
2022/05/09 09:24:37;;;;;;;;;;;22.40;97.90;24.50;97601.00;;;;5061224;28;19924;-86
2022/05/09 09:27:34;;;;;;;;;;;22.50;96.20;24.90;97619.00;;;;5072597;22;19920;-86
2022/05/09 09:30:26;;;;;;;;;;;22.70;96.20;23.30;97613.00;;;;5073195;28;20307;-84
2022/05/09 09:33:17;;;;;;;;;;;22.70;93.10;23.80;97607.00;;;;5068170;28;19920;-84
2022/05/09 09:36:08;;;;;;;;;;;22.40;93.70;24.00;97630.00;;;;5072162;28;19920;-85
2022/05/09 09:38:59;;;;;;;;;;;22.40;93.10;23.60;97609.00;;;;5049728;28;19924;-84
2022/05/09 09:41:48;;;;;;;;;;;22.20;93.20;23.60;97627.00;;;;5050346;28;19925;-83
2022/05/09 09:44:38;;;;;;;;;;;22.10;90.80;23.30;97633.00;;;;5049615;28;20377;-84
2022/05/09 09:47:30;;;;;;;;;;;22.00;91.40;22.40;97629.00;;;;5050407;28;20376;-84
2022/05/09 09:50:38;;;;;;;;;;;21.60;90.50;22.10;97625.00;;;;5043723;28;20010;-86
2022/05/09 09:53:34;;;;;;;;;;;21.30;92.70;21.50;97628.00;;;;5038028;28;19932;-86
2022/05/09 09:56:29;;;;;;;;;;;20.90;92.50;20.50;97625.00;;;;5052033;28;19924;-86
2022/05/09 09:59:21;;;;;;;;;;;20.50;91.90;20.00;97623.00;;;;5066130;28;20291;-84
2022/05/09 10:02:17;;;;;;;;;;;20.00;92.20;20.10;97626.00;;;;5056853;28;19920;-86
2022/05/09 10:05:13;;;;;;;;;;;20.00;93.20;20.00;97614.00;;;;5055545;28;19925;-84
2022/05/09 10:08:21;;;;;;;;;;;19.40;94.40;19.60;97611.00;;;;5063978;28;20300;-84
2022/05/09 10:11:12;;;;;;;;;;;19.20;98.70;19.40;97618.00;;;;5051329;28;19925;-87
2022/05/09 10:14:04;;;;;;;5.70;5.10;;;19.00;98.90;19.10;97616.00;;;;5046073;28;20187;-86
2022/05/09 10:16:55;;;;;;;6.60;5.78;;;18.80;99.90;19.30;97619.00;;;;5051516;28;20413;-84
2022/05/09 10:19:46;;;;;;;6.35;5.72;;;18.70;99.90;19.10;97617.00;;;;5051572;28;20406;-85
2022/05/09 10:26:05;;;;;;;6.80;6.10;;;18.50;99.90;19.50;97615.00;;;;5054503;28;20383;-86
2022/05/09 10:28:59;;;;;;;6.15;5.63;;;18.90;99.90;19.50;97619.00;;;;5065208;28;20879;-86
2022/05/09 10:31:54;;;;;;;6.07;5.57;;;18.70;99.90;19.70;97621.00;;;;5062578;28;20454;-84
2022/05/09 10:34:50;;;;;;;6.38;5.68;;;18.70;99.90;19.80;97623.00;;;;5056167;28;20405;-84
2022/05/09 10:37:49;;;;;;;9.73;5.57;;;18.80;99.90;19.80;97614.00;;;;5062170;28;20393;-84
2022/05/09 10:40:42;;;;;;;8.10;5.88;;;18.80;99.90;20.10;97618.00;;;;5060114;28;20391;-84
2022/05/09 10:43:35;;;;;;;5.73;5.10;;;18.90;99.90;20.20;97618.00;;;;5065236;28;20476;-84
2022/05/09 10:46:37;;;;;;;6.68;6.07;;;19.00;99.90;20.30;97620.00;;;;5048798;28;20401;-84
2022/05/09 10:49:38;;;;;;;6.78;6.18;;;19.10;99.90;20.50;97622.00;;;;5052036;28;20397;-85
2022/05/09 10:52:42;;;;;;;5.90;5.43;;;19.20;99.90;20.90;97618.00;;;;5051188;28;20402;-84
2022/05/09 10:55:39;;;;;;;6.03;5.50;;;19.40;99.90;21.10;97633.00;;;;5049875;28;20385;-85
2022/05/09 10:58:35;;;;;;;6.03;5.43;;;19.40;99.90;20.70;97636.00;;;;5043871;28;20907;-85
2022/05/09 11:01:31;;;;;;;6.07;5.47;;;19.60;99.90;21.00;97637.00;;;;5051074;28;20390;-84
2022/05/09 11:04:21;;;;;;;5.97;4.82;;;19.60;99.90;21.10;97639.00;;;;5038154;28;20388;-84
2022/05/09 11:07:24;;;;;;;4.10;3.80;;;20.20;99.90;21.00;97645.00;;;;5051411;28;20225;-85
2022/05/09 11:10:26;;;;;;;4.85;3.40;;;19.70;99.90;20.90;97651.00;;;;5048362;28;20398;-85
2022/05/09 11:13:26;;;;;;;5.45;4.53;;;19.70;99.90;20.70;97653.00;;;;5050627;28;20520;-85
2022/05/09 11:16:24;;;;;;;4.10;3.70;;;19.70;99.90;20.50;97651.00;;;;5039949;28;20660;-84
2022/05/09 11:19:32;;;;;;;4.10;3.70;;;19.60;99.90;20.10;97652.00;;;;5069627;28;20208;-84
2022/05/09 11:22:27;;;;;;;3.83;3.53;;;19.40;99.90;19.90;97645.00;;;;5069503;28;20194;-85
2022/05/09 11:25:35;;;;;;;7.13;3.60;;;19.20;99.90;19.40;97632.00;;;;5061789;28;20205;-85
2022/05/09 11:28:59;;;;;;;4.53;4.17;;;19.00;99.90;19.90;97631.00;;;;5054170;28;20240;-85
2022/05/09 11:32:12;;;;;;;4.97;4.00;;;18.80;99.90;20.40;97639.00;;;;5054604;28;20230;-85
2022/05/09 11:35:37;;;;;;;6.83;4.30;;;18.90;99.90;20.80;97623.00;;;;5065993;28;20211;-86
2022/05/09 11:38:52;;;;;;;5.17;4.67;;;19.00;99.90;21.00;97608.00;;;;5061844;28;20581;-85
2022/05/09 11:41:54;;;;;;;7.00;4.87;;;19.30;99.90;21.60;97614.00;;;;5052126;28;20209;-86
2022/05/09 11:44:55;;;;;;;5.00;4.50;;;19.60;99.90;21.40;97612.00;;;;5055534;28;20204;-86
2022/05/09 11:47:54;;;;;;;4.57;3.30;;;19.70;99.90;21.50;97607.00;;;;5054727;28;20228;-85
2022/05/09 11:50:52;;;;;;;4.77;3.90;;;19.90;99.90;21.70;97604.00;;;;5051916;28;20217;-85
2022/05/09 11:53:47;;;;;;;3.80;3.50;;;20.00;99.90;22.60;97563.00;;;;5056090;28;20623;-86
2022/05/09 11:56:38;;;;;;;3.30;3.00;;;20.00;99.90;22.30;97573.00;;;;5054966;28;20200;-86
2022/05/09 11:59:32;;;;;;;3.37;2.57;;;21.00;99.90;22.40;97568.00;;;;5057469;28;20208;-86
2022/05/09 12:02:49;;;;;;;6.23;2.77;;;21.10;99.90;23.10;97590.00;;;;5056277;28;20279;-86
2022/05/09 12:05:56;;;;;;;4.00;2.90;;;21.30;99.80;23.00;97589.00;;;;5055968;28;20212;-86
2022/05/09 12:08:46;;;;;;;3.10;2.73;;;21.40;99.40;23.90;97533.00;;;;5051354;28;20227;-86
2022/05/09 12:11:50;;;;;;;3.83;2.80;;;21.70;99.00;24.10;97566.00;;;;5057059;28;20208;-87
2022/05/09 12:14:52;;;;;;;3.53;3.10;;;22.10;98.50;25.40;97548.00;;;;5054444;28;20203;-86
2022/05/09 12:17:42;;;;;;;4.17;3.63;;;22.70;99.40;24.90;97588.00;;;;5038330;28;20220;-87
2022/05/09 12:21:19;;;;;;;4.40;3.00;;;23.00;98.10;23.50;97580.00;;;;5058473;28;20311;-86
2022/05/09 12:24:33;;;;;;;6.00;3.27;;;22.80;97.30;23.40;97594.00;;;;5036135;28;20220;-86
2022/05/09 12:28:04;;;;;;;4.63;2.47;;;22.50;98.20;22.90;97594.00;;;;5056962;28;20232;-86
2022/05/09 12:30:56;;;;;;;3.63;3.33;;;22.20;99.40;23.30;97606.00;;;;5063094;28;20259;-86
2022/05/09 12:33:53;;;;;;;5.27;3.33;;;21.90;99.90;23.20;97596.00;;;;5058770;28;20236;-86
2022/05/09 12:36:46;;;;;;;3.97;3.67;;;21.80;99.90;22.50;97585.00;;;;5066863;28;20604;-86
2022/05/09 12:39:37;;;;;;;3.43;3.13;;;21.70;99.90;22.70;97582.00;;;;5064251;28;20199;-85
2022/05/09 12:42:36;;;;;;;3.87;3.20;;;21.50;99.90;23.10;97558.00;;;;5057531;28;20248;-86
2022/05/09 12:45:28;;;;;;;8.50;3.60;;;21.50;99.90;23.00;97564.00;;;;5056577;28;20256;-86
2022/05/09 12:48:17;;;;;;;3.97;3.17;;;21.40;99.90;23.40;97502.00;;;;5065474;28;20602;-84
2022/05/09 12:51:10;;;;;;;4.33;3.50;;;21.50;99.90;24.60;97533.00;;;;5063221;28;20196;-85
2022/05/09 12:54:00;;;;;;;3.80;3.00;;;21.90;99.90;24.70;97538.00;;;;5070898;28;20223;-86
2022/05/09 12:56:52;;;;;;;4.93;3.27;;;22.30;99.90;25.50;97513.00;;;;5059670;28;20216;-87
2022/05/09 12:59:50;;;;;;;3.80;2.80;;;22.80;99.90;25.30;97525.00;;;;5059798;28;20805;-85
2022/05/09 13:02:39;;;;;;;6.60;3.67;;;23.20;99.40;25.00;97563.00;;;;5056693;28;20549;-87
2022/05/09 13:05:47;;;;;;;3.97;3.47;;;23.40;97.80;23.60;97571.00;;;;5059957;28;20600;-84
2022/05/09 13:08:38;;;;;;;4.03;3.20;;;22.90;97.40;23.50;97564.00;;;;5052530;28;20225;-86
2022/05/09 13:11:32;;;;;;;5.57;3.47;;;22.60;97.90;23.40;97568.00;;;;5051383;28;20206;-86